NZAA

Auckland Airport

Airport
ICAO code
NZAA
IATA Code
AKL
Summary
ICAO Region
APAC
ICAO Territory
Location

Mangere, Manukau City,

Serving
Auckland
Elevation
23 ft
Coordinates
37° 0' 34" S , 174° 47' 29" E
KCC
Airport LOS
Parallel Runway Operation
Metar
Observation
NZAA 261630Z AUTO 03004KT 9999 NCD 12/11 Q1005 NOSIG
Station
Auckland Airport
Date/Time
2022-11-26 16:30:00
Wind direction
30°
Wind speed
04 kts
Lowest cloud amount
no clouds detected
Temperature
12°C
Dew point
11°C
Humidity
93%
QNH
1005 hPa
Weather condition
n/a

Description

Auckland Airport (formerly Auckland International Airport) is the largest and busiest airport in New Zealand. The airport is in Mangere, a western suburb of Manukau City, and is 21 km south of Auckland City centre.

Climatology

Temperate Marine climate/Oceanic climate (Köppen climate classification Cfb) - Moderately cool summer and comparatively warm winter.

Runways

Designator Length Width Surface Rops
05L/23R 3108 45 CON Yes/Yes
05R/23L 3635 45 CON Yes/Yes

SKYbrary Partners:

Safety knowledge contributed by: